Time;durP1;ratioP1;P1;durP2;ratioP2;P2;SDS_P1;SDS_P2;PMS_P1;PMS_P2;Temp;Humidity;BMP_temperature;BMP_pressure;BME280_temperature;BME280_humidity;BME280_pressure;Samples;Min_cycle;Max_cycle;Signal;HPM_P1;HPM_P2
2021/04/19 00:02:00;;;;;;;5.43;3.83;;;10.10;75.10;;;;;;5089609;28;20087;-82
2021/04/19 00:04:26;;;;;;;8.52;4.60;;;10.10;75.40;;;;;;5092942;28;20112;-82
2021/04/19 00:06:51;;;;;;;6.05;4.75;;;10.00;75.90;;;;;;5090967;28;20099;-83
2021/04/19 00:09:17;;;;;;;6.38;4.13;;;10.00;76.10;;;;;;5088130;28;20102;-83
2021/04/19 00:11:43;;;;;;;7.20;4.05;;;10.00;76.30;;;;;;5091234;28;20536;-82
2021/04/19 00:14:09;;;;;;;7.10;4.47;;;10.00;76.10;;;;;;5088828;28;20024;-83
2021/04/19 00:16:34;;;;;;;5.25;3.90;;;10.00;76.10;;;;;;5084516;28;20041;-82
2021/04/19 00:19:00;;;;;;;5.85;3.95;;;10.10;75.80;;;;;;5056519;28;20376;-83
2021/04/19 00:21:25;;;;;;;4.30;2.92;;;10.00;75.90;;;;;;5054566;28;20039;-82
2021/04/19 00:23:51;;;;;;;5.47;3.78;;;10.00;75.80;;;;;;5070562;28;20094;-83
2021/04/19 00:26:16;;;;;;;4.82;3.50;;;10.00;76.00;;;;;;5055554;28;20028;-83
2021/04/19 00:28:42;;;;;;;5.13;3.70;;;10.00;76.00;;;;;;5056426;28;20021;-82
2021/04/19 00:31:08;;;;;;;4.70;3.35;;;10.00;76.00;;;;;;5051648;28;20025;-82
2021/04/19 00:33:34;;;;;;;4.60;3.30;;;10.00;75.90;;;;;;5072660;28;20028;-83
2021/04/19 00:36:00;;;;;;;5.85;3.72;;;10.00;75.80;;;;;;5052809;28;20055;-83
2021/04/19 00:38:25;;;;;;;4.60;3.53;;;9.90;76.10;;;;;;5073263;28;20024;-82
2021/04/19 00:40:55;;;;;;;6.25;3.75;;;9.80;76.30;;;;;;5073596;28;20017;-83
2021/04/19 00:43:22;;;;;;;4.63;3.50;;;9.70;76.80;;;;;;5052358;28;20547;-82
2021/04/19 00:45:50;;;;;;;6.00;3.88;;;9.60;77.40;;;;;;5074051;28;20524;-82
2021/04/19 00:48:17;;;;;;;5.28;3.13;;;9.60;77.80;;;;;;5066947;28;20469;-83
2021/04/19 00:50:43;;;;;;;5.47;3.67;;;9.60;77.80;;;;;;5054085;28;20029;-82
2021/04/19 00:53:09;;;;;;;5.28;3.53;;;9.60;77.90;;;;;;5069410;28;20045;-82
2021/04/19 00:55:35;;;;;;;3.75;2.92;;;9.60;77.90;;;;;;5054895;28;20029;-82
2021/04/19 00:58:00;;;;;;;6.07;3.88;;;9.60;77.80;;;;;;5069433;28;20066;-82
2021/04/19 01:00:32;;;;;;;5.22;3.78;;;9.50;78.00;;;;;;5073813;28;20016;-83
2021/04/19 01:02:58;;;;;;;4.93;3.38;;;9.50;78.20;;;;;;5056101;28;20025;-83
2021/04/19 01:05:31;;;;;;;6.13;3.58;;;9.40;78.50;;;;;;5051019;28;20065;-83
2021/04/19 01:07:57;;;;;;;6.40;3.85;;;9.40;78.80;;;;;;5053970;28;20018;-82
2021/04/19 01:10:22;;;;;;;4.65;3.50;;;9.30;79.10;;;;;;5070411;28;20021;-83
2021/04/19 01:12:49;;;;;;;5.32;3.80;;;9.30;79.30;;;;;;5072856;28;20380;-83
2021/04/19 01:15:15;;;;;;;8.73;5.10;;;9.20;79.40;;;;;;5053802;28;20040;-83
2021/04/19 01:17:42;;;;;;;5.68;4.07;;;9.30;79.90;;;;;;5089589;28;20040;-83
2021/04/19 01:20:10;;;;;;;7.70;4.50;;;9.30;79.70;;;;;;5092712;28;20362;-83
2021/04/19 01:22:37;;;;;;;5.13;3.67;;;9.30;79.60;;;;;;5090609;28;20472;-82
2021/04/19 01:25:08;;;;;;;6.40;3.70;;;9.30;79.70;;;;;;5087994;28;20383;-83
2021/04/19 01:27:34;;;;;;;4.70;3.60;;;9.30;79.60;;;;;;5092204;28;20048;-83
2021/04/19 01:30:00;;;;;;;5.57;3.40;;;9.20;79.80;;;;;;5093639;28;20024;-83
2021/04/19 01:32:26;;;;;;;6.32;4.05;;;9.10;80.20;;;;;;5086951;28;20032;-83
2021/04/19 01:34:52;;;;;;;6.70;3.72;;;9.00;80.40;;;;;;5088997;28;20072;-83
2021/04/19 01:37:18;;;;;;;5.07;3.47;;;9.00;80.60;;;;;;5092154;28;20024;-83
2021/04/19 01:39:44;;;;;;;7.10;4.22;;;8.90;81.00;;;;;;5089747;28;20020;-83
2021/04/19 01:42:10;;;;;;;6.28;4.70;;;8.80;81.40;;;;;;5091749;28;20019;-82
2021/04/19 01:44:35;;;;;;;6.50;4.40;;;8.70;81.70;;;;;;5091370;28;20024;-83
2021/04/19 01:47:01;;;;;;;6.03;3.47;;;8.70;81.90;;;;;;5093482;28;20024;-83
2021/04/19 01:49:30;;;;;;;8.15;4.68;;;8.70;82.70;;;;;;5089375;28;20063;-83
2021/04/19 01:51:55;;;;;;;5.82;4.07;;;8.70;82.10;;;;;;5089733;28;20376;-83
2021/04/19 01:54:21;;;;;;;6.40;4.10;;;8.60;82.30;;;;;;5090077;28;20027;-83
2021/04/19 01:56:47;;;;;;;4.43;3.67;;;8.60;82.60;;;;;;5089244;28;20035;-83
2021/04/19 01:59:13;;;;;;;5.65;3.88;;;8.50;82.80;;;;;;5091338;28;20047;-83
2021/04/19 02:02:04;;;;;;;5.35;3.92;;;8.50;82.80;;;;;;5090904;28;20674;-83
2021/04/19 02:05:08;;;;;;;6.70;3.42;;;8.60;82.70;;;;;;5083826;28;20027;-82
2021/04/19 02:07:50;;;;;;;5.88;3.50;;;8.60;82.80;;;;;;5051787;28;20431;-83
2021/04/19 02:10:23;;;;;;;6.72;3.95;;;8.50;82.80;;;;;;5089614;28;20017;-83
2021/04/19 02:13:02;;;;;;;5.88;3.92;;;8.60;82.80;;;;;;5091802;28;20019;-82
2021/04/19 02:15:57;;;;;;;6.75;4.18;;;8.50;82.90;;;;;;5086134;28;20093;-83
2021/04/19 02:18:47;;;;;;;6.30;4.25;;;8.50;83.10;;;;;;5032879;28;20029;-83
2021/04/19 02:21:20;;;;;;;5.55;3.97;;;8.40;83.50;;;;;;5064694;28;20024;-83
2021/04/19 02:23:51;;;;;;;6.00;3.60;;;8.40;83.70;;;;;;5068085;28;20028;-82
2021/04/19 02:26:22;;;;;;;5.97;4.43;;;8.30;83.80;;;;;;5070436;28;20081;-83
2021/04/19 02:28:54;;;;;;;8.55;4.70;;;8.30;83.90;;;;;;5069444;28;20038;-83
2021/04/19 02:31:22;;;;;;;5.82;4.15;;;8.40;84.10;;;;;;5051894;28;20028;-83
2021/04/19 02:33:49;;;;;;;7.63;4.88;;;8.50;83.90;;;;;;5042640;28;20031;-83
2021/04/19 02:36:16;;;;;;;8.57;4.45;;;8.50;83.80;;;;;;5048792;28;20029;-82
2021/04/19 02:38:47;;;;;;;7.60;5.72;;;8.50;83.80;;;;;;5052867;28;20020;-82
2021/04/19 02:41:16;;;;;;;8.25;5.40;;;8.30;84.40;;;;;;5052270;28;20021;-82
2021/04/19 02:43:42;;;;;;;11.63;6.10;;;8.30;84.80;;;;;;5048218;28;20017;-82
2021/04/19 02:46:09;;;;;;;8.55;5.30;;;8.30;85.40;;;;;;5053725;28;20541;-83
2021/04/19 02:48:36;;;;;;;8.27;5.10;;;8.30;85.50;;;;;;5064162;28;20024;-83
2021/04/19 02:51:05;;;;;;;7.45;4.55;;;8.20;85.60;;;;;;5051892;28;20086;-82
2021/04/19 02:53:32;;;;;;;7.53;4.67;;;8.20;85.80;;;;;;5066744;28;20035;-82
2021/04/19 02:55:59;;;;;;;7.82;4.93;;;8.20;86.00;;;;;;5047982;28;20286;-83
2021/04/19 02:58:49;;;;;;;8.18;5.15;;;8.20;86.30;;;;;;5038333;28;20437;-83
2021/04/19 03:01:21;;;;;;;5.75;4.28;;;8.20;86.20;;;;;;5059008;28;20028;-82
2021/04/19 03:03:49;;;;;;;8.18;4.93;;;8.10;86.40;;;;;;5048639;28;20101;-83
2021/04/19 03:06:16;;;;;;;8.13;4.95;;;8.00;86.80;;;;;;5043510;28;20032;-83
2021/04/19 03:08:49;;;;;;;8.95;5.88;;;7.90;87.50;;;;;;5067583;28;20480;-83
2021/04/19 03:11:39;;;;;;;10.00;6.43;;;7.90;87.70;;;;;;5046973;28;20037;-83
2021/04/19 03:14:08;;;;;;;10.15;5.95;;;7.80;88.30;;;;;;5022605;28;20028;-82
2021/04/19 03:16:35;;;;;;;10.77;6.95;;;7.80;89.10;;;;;;5059714;28;20083;-82
2021/04/19 03:19:03;;;;;;;8.23;5.75;;;7.80;89.50;;;;;;5090048;28;20078;-83
2021/04/19 03:21:30;;;;;;;8.35;5.75;;;7.70;89.70;;;;;;5085413;28;20024;-82
2021/04/19 03:23:59;;;;;;;7.78;5.30;;;7.70;89.70;;;;;;5079960;28;20013;-82
2021/04/19 03:26:29;;;;;;;9.77;5.78;;;7.70;89.90;;;;;;5091161;28;20438;-82
2021/04/19 03:28:57;;;;;;;9.38;5.57;;;7.70;90.10;;;;;;5080535;28;20021;-83
2021/04/19 03:31:27;;;;;;;10.82;6.43;;;7.60;90.20;;;;;;5080401;28;20028;-83
2021/04/19 03:33:55;;;;;;;;;;;7.70;90.20;;;;;;5086071;28;20024;-83
2021/04/19 03:36:23;;;;;;;11.23;6.10;;;7.70;90.10;;;;;;5087716;28;20014;-83
2021/04/19 03:38:49;;;;;;;10.35;5.68;;;7.60;90.30;;;;;;5092034;28;20020;-82
2021/04/19 03:41:16;;;;;;;9.93;5.72;;;7.70;90.20;;;;;;5093722;28;20012;-83
2021/04/19 03:43:46;;;;;;;7.55;5.55;;;7.70;90.20;;;;;;5095132;28;20027;-83
2021/04/19 03:46:15;;;;;;;11.68;6.82;;;7.70;90.10;;;;;;5090174;28;20028;-82
2021/04/19 03:48:43;;;;;;;9.23;6.20;;;7.70;90.30;;;;;;5091696;28;20032;-83
2021/04/19 03:51:11;;;;;;;9.30;5.95;;;7.70;90.60;;;;;;5084740;28;20032;-82
2021/04/19 03:53:39;;;;;;;8.90;5.88;;;7.70;90.30;;;;;;5087339;28;20085;-82
2021/04/19 03:56:06;;;;;;;9.63;6.50;;;7.80;90.30;;;;;;5084975;28;20360;-82
2021/04/19 03:58:33;;;;;;;9.10;6.30;;;7.70;90.40;;;;;;5092470;28;20086;-83
2021/04/19 04:01:02;;;;;;;10.05;6.38;;;7.70;90.50;;;;;;5082505;28;20143;-83
2021/04/19 04:03:29;;;;;;;9.40;6.25;;;7.70;90.60;;;;;;5093655;28;20024;-83
2021/04/19 04:05:57;;;;;;;10.48;6.10;;;7.70;90.60;;;;;;5087413;28;20157;-82
2021/04/19 04:08:24;;;;;;;10.35;6.05;;;7.70;90.70;;;;;;5090107;28;20024;-82
2021/04/19 04:10:50;;;;;;;8.18;5.70;;;7.70;90.60;;;;;;5088151;28;20024;-82
2021/04/19 04:13:17;;;;;;;10.93;6.40;;;7.70;90.60;;;;;;5092095;28;20016;-82
2021/04/19 04:15:55;;;;;;;11.10;6.95;;;7.70;90.80;;;;;;5087599;28;20031;-83
2021/04/19 04:18:20;;;;;;;9.45;6.90;;;7.80;90.80;;;;;;5073773;28;20024;-83
2021/04/19 04:20:47;;;;;;;8.45;6.18;;;7.80;90.80;;;;;;5069432;28;20104;-82
2021/04/19 04:23:13;;;;;;;8.68;5.45;;;7.80;90.80;;;;;;5051711;28;20021;-83
2021/04/19 04:25:40;;;;;;;10.18;6.85;;;7.80;90.90;;;;;;5052825;28;20360;-82
2021/04/19 04:28:06;;;;;;;12.82;6.63;;;7.80;91.00;;;;;;5048487;28;20019;-82
2021/04/19 04:30:35;;;;;;;11.65;6.03;;;7.70;91.20;;;;;;5056847;28;20400;-83
2021/04/19 04:33:02;;;;;;;9.00;5.93;;;7.70;91.20;;;;;;5051064;28;20379;-83
2021/04/19 04:35:28;;;;;;;8.07;5.78;;;7.80;91.20;;;;;;5054563;28;20020;-83
2021/04/19 04:37:53;;;;;;;10.48;6.85;;;7.70;91.20;;;;;;5049177;28;20024;-82
2021/04/19 04:40:19;;;;;;;11.88;6.85;;;7.70;91.20;;;;;;5073354;28;20380;-83
2021/04/19 04:42:48;;;;;;;9.10;6.00;;;7.70;91.30;;;;;;5072555;28;20426;-82
2021/04/19 04:45:14;;;;;;;10.35;7.80;;;7.70;91.40;;;;;;5051359;28;20025;-82
2021/04/19 04:47:48;;;;;;;13.73;8.20;;;7.60;91.70;;;;;;5051146;28;20549;-83
2021/04/19 04:50:19;;;;;;;13.68;7.65;;;7.70;91.70;;;;;;5068335;28;20021;-83
2021/04/19 04:52:59;;;;;;;11.32;7.50;;;7.70;91.90;;;;;;5049186;28;20021;-82
2021/04/19 04:55:25;;;;;;;10.10;6.80;;;7.60;91.90;;;;;;5039419;28;20481;-82
2021/04/19 04:57:52;;;;;;;11.55;7.03;;;7.60;92.00;;;;;;5072857;28;20455;-83
2021/04/19 05:00:20;;;;;;;10.65;6.65;;;7.70;92.00;;;;;;5051832;28;20059;-83
2021/04/19 05:02:48;;;;;;;7.82;5.60;;;7.70;92.00;;;;;;5035006;28;20074;-83
2021/04/19 05:05:14;;;;;;;8.35;6.28;;;7.70;92.00;;;;;;5050464;28;20032;-83
2021/04/19 05:07:41;;;;;;;7.13;5.20;;;7.70;92.00;;;;;;5053840;28;20029;-83
2021/04/19 05:10:08;;;;;;;8.63;5.85;;;7.80;92.00;;;;;;5062384;28;20042;-83
2021/04/19 05:12:34;;;;;;;10.88;7.18;;;7.80;92.00;;;;;;5054410;28;20465;-83
2021/04/19 05:15:01;;;;;;;11.88;7.60;;;7.80;92.10;;;;;;5048299;28;20123;-83
2021/04/19 05:17:27;;;;;;;12.35;7.90;;;7.80;92.20;;;;;;5075891;28;20048;-83
2021/04/19 05:19:53;;;;;;;12.10;7.18;;;7.80;92.40;;;;;;5075850;28;20081;-83
2021/04/19 05:22:20;;;;;;;11.50;7.38;;;7.80;92.40;;;;;;5074217;28;20016;-83
2021/04/19 05:24:45;;;;;;;9.65;6.88;;;7.90;92.70;;;;;;5074598;28;20067;-82
2021/04/19 05:27:12;;;;;;;15.15;8.10;;;7.90;92.40;;;;;;5070216;28;20048;-83
2021/04/19 05:29:39;;;;;;;11.85;7.93;;;7.90;92.40;;;;;;5072896;28;20032;-83
2021/04/19 05:32:07;;;;;;;14.25;7.90;;;7.90;92.50;;;;;;5070468;28;20029;-83
2021/04/19 05:34:33;;;;;;;11.90;7.63;;;8.00;92.50;;;;;;5072299;28;20396;-83
2021/04/19 05:37:00;;;;;;;11.85;7.15;;;8.00;92.50;;;;;;5072177;28;20020;-83
2021/04/19 05:39:26;;;;;;;13.15;7.50;;;8.10;92.50;;;;;;5072600;28;20016;-83
2021/04/19 05:41:52;;;;;;;9.95;7.00;;;8.10;92.50;;;;;;5073972;28;20020;-83
2021/04/19 05:44:18;;;;;;;13.10;8.10;;;8.10;92.80;;;;;;5073088;28;20093;-82
2021/04/19 05:46:44;;;;;;;13.57;8.00;;;8.10;92.70;;;;;;5073921;28;20523;-82
2021/04/19 05:49:09;;;;;;;13.73;7.88;;;8.10;92.80;;;;;;5074326;28;20032;-82
2021/04/19 05:51:40;;;;;;;11.43;7.25;;;8.10;92.90;;;;;;5074084;28;20024;-83
2021/04/19 05:54:06;;;;;;;13.68;8.95;;;8.00;93.10;;;;;;5072812;28;20073;-84
2021/04/19 05:56:34;;;;;;;12.80;8.38;;;8.00;93.30;;;;;;5072522;28;20033;-83
2021/04/19 05:59:12;;;;;;;11.90;7.35;;;8.10;93.40;;;;;;5072553;28;20115;-83
2021/04/19 06:01:41;;;;;;;10.73;8.02;;;8.00;93.50;;;;;;5073134;28;20395;-83
2021/04/19 06:04:18;;;;;;;14.52;9.15;;;8.10;93.70;;;;;;5072774;28;20021;-83
2021/04/19 06:07:10;;;;;;;15.13;9.65;;;8.10;93.90;;;;;;5072463;28;20028;-83
2021/04/19 06:09:47;;;;;;;13.55;10.00;;;8.10;94.00;;;;;;5067357;28;20031;-83
2021/04/19 06:12:18;;;;;;;15.27;9.75;;;8.10;94.20;;;;;;5065940;28;20021;-83
2021/04/19 06:14:45;;;;;;;16.50;11.20;;;8.00;94.50;;;;;;5072571;28;20024;-83
2021/04/19 06:17:11;;;;;;;17.88;11.15;;;7.90;94.70;;;;;;5053246;28;20099;-83
2021/04/19 06:19:41;;;;;;;18.05;10.82;;;7.90;94.90;;;;;;5052477;28;20121;-83
2021/04/19 06:22:07;;;;;;;14.73;10.38;;;7.90;95.20;;;;;;5052177;28;20112;-83
2021/04/19 06:24:33;;;;;;;15.68;10.75;;;7.80;95.30;;;;;;5052420;28;20048;-84
2021/04/19 06:26:59;;;;;;;12.15;8.57;;;7.90;95.40;;;;;;5056251;28;20036;-84
2021/04/19 06:29:29;;;;;;;12.98;9.25;;;7.80;95.50;;;;;;5064201;28;20025;-83
2021/04/19 06:31:56;;;;;;;14.98;10.82;;;7.80;95.60;;;;;;5061621;28;20035;-83
2021/04/19 06:34:22;;;;;;;17.85;11.85;;;7.70;95.90;;;;;;5056592;28;21093;-83
2021/04/19 06:36:49;;;;;;;19.40;13.27;;;7.60;96.50;;;;;;5064130;28;20090;-82
2021/04/19 06:39:19;;;;;;;21.63;13.65;;;7.50;97.60;;;;;;5063162;28;20017;-83
2021/04/19 06:41:45;;;;;;;19.50;13.20;;;7.40;99.10;;;;;;5060561;28;20013;-82
2021/04/19 06:44:14;;;;;;;17.85;12.82;;;7.40;99.60;;;;;;5063820;28;20044;-83
2021/04/19 06:46:44;;;;;;;21.20;11.82;;;7.40;99.90;;;;;;5061372;28;20043;-83
2021/04/19 06:49:14;;;;;;;;;;;7.40;99.90;;;;;;5064353;28;20074;-83
2021/04/19 06:51:41;;;;;;;17.98;11.43;;;7.30;99.90;;;;;;5063536;28;19905;-84
2021/04/19 06:54:06;;;;;;;14.25;9.93;;;7.30;99.90;;;;;;5058542;28;20067;-84
2021/04/19 06:56:38;;;;;;;15.05;10.05;;;7.40;99.90;;;;;;5053062;28;20075;-84
2021/04/19 06:59:05;;;;;;;16.60;9.80;;;7.40;99.90;;;;;;5055604;28;20013;-84
2021/04/19 07:01:32;;;;;;;23.77;14.88;;;7.40;99.90;;;;;;5064314;28;20025;-83
2021/04/19 07:04:10;;;;;;;16.60;11.30;;;7.50;99.90;;;;;;5087411;28;20028;-81
2021/04/19 07:06:37;;;;;;;17.65;11.45;;;7.70;99.90;;;;;;5051495;28;20386;-82
2021/04/19 07:09:17;;;;;;;16.75;11.73;;;7.70;99.90;;;;;;5061613;28;20024;-83
2021/04/19 07:11:44;;;;;;;16.23;12.35;;;7.70;99.90;;;;;;5080592;28;20115;-83
2021/04/19 07:14:13;;;;;;;17.73;11.68;;;7.80;99.90;;;;;;5089365;28;20039;-81
2021/04/19 07:16:39;;;;;;;20.77;14.15;;;7.80;99.90;;;;;;5085200;28;20044;-82
2021/04/19 07:19:05;;;;;;;23.30;15.85;;;7.70;99.90;;;;;;5086081;28;20535;-82
2021/04/19 07:21:33;;;;;;;34.72;22.27;;;7.70;99.90;;;;;;5088432;28;20022;-82
2021/04/19 07:24:00;;;;;;;27.38;18.50;;;7.60;99.90;;;;;;5087917;28;20024;-81
2021/04/19 07:26:26;;;;;;;19.83;14.25;;;7.70;99.90;;;;;;5089569;28;20024;-82
2021/04/19 07:28:52;;;;;;;20.13;14.50;;;7.70;99.90;;;;;;5089256;28;20115;-82
2021/04/19 07:31:17;;;;;;;22.27;14.48;;;7.70;99.90;;;;;;5087608;28;20073;-83
2021/04/19 07:33:45;;;;;;;20.58;14.13;;;7.70;99.90;;;;;;5085125;28;20070;-83
2021/04/19 07:36:31;;;;;;;20.58;14.38;;;7.70;99.90;;;;;;5088367;28;20382;-83
2021/04/19 07:38:59;;;;;;;19.02;12.43;;;7.70;99.90;;;;;;5083680;28;20012;-83
2021/04/19 07:41:48;;;;;;;16.92;11.60;;;7.80;99.90;;;;;;5081949;28;20032;-83
2021/04/19 07:44:33;;;;;;;23.85;15.25;;;7.90;99.90;;;;;;5088260;28;20480;-83
2021/04/19 07:47:30;;;;;;;21.60;14.48;;;7.80;99.90;;;;;;5083353;28;20038;-83
2021/04/19 07:50:15;;;;;;;23.00;17.67;;;7.80;99.90;;;;;;5086224;28;20024;-84
2021/04/19 07:52:52;;;;;;;22.27;15.68;;;7.90;99.90;;;;;;5065800;28;20036;-83
2021/04/19 07:55:23;;;;;;;22.25;14.43;;;8.10;99.90;;;;;;5084158;28;20383;-83
2021/04/19 07:57:50;;;;;;;19.67;14.25;;;8.40;99.90;;;;;;5088412;28;20459;-83
2021/04/19 08:00:37;;;;;;;29.10;19.33;;;8.70;99.90;;;;;;5086032;28;20020;-83
2021/04/19 08:03:11;;;;;;;31.90;21.67;;;9.00;99.90;;;;;;5085936;28;20020;-83
2021/04/19 08:05:49;;;;;;;24.85;18.35;;;9.20;99.90;;;;;;5080094;28;20025;-83
2021/04/19 08:08:17;;;;;;;36.45;23.95;;;9.30;99.90;;;;;;5084033;28;20106;-83
2021/04/19 08:10:44;;;;;;;35.97;24.63;;;9.50;99.90;;;;;;5091120;28;20099;-82
2021/04/19 08:13:19;;;;;;;28.75;20.42;;;9.60;99.90;;;;;;5091581;28;20066;-82
2021/04/19 08:15:46;;;;;;;26.65;19.02;;;9.60;99.90;;;;;;5083710;28;20016;-82
2021/04/19 08:18:17;;;;;;;25.73;19.65;;;9.60;99.90;;;;;;5050789;28;20384;-82
2021/04/19 08:20:57;;;;;;;33.58;21.98;;;9.60;99.90;;;;;;5049772;28;20020;-82
2021/04/19 08:23:23;;;;;;;25.42;19.45;;;9.60;99.90;;;;;;5049261;28;20028;-83
2021/04/19 08:25:51;;;;;;;30.08;22.10;;;9.70;99.90;;;;;;5051518;28;20064;-82
2021/04/19 08:28:21;;;;;;;24.92;18.60;;;9.70;99.90;;;;;;5056035;28;20047;-83
2021/04/19 08:30:55;;;;;;;22.23;16.33;;;9.70;99.90;;;;;;5055253;28;20155;-83
2021/04/19 08:33:22;;;;;;;33.30;23.27;;;9.80;99.90;;;;;;5055898;28;20476;-82
2021/04/19 08:35:50;;;;;;;31.63;22.95;;;9.90;99.90;;;;;;5052625;28;20036;-81
2021/04/19 08:38:20;;;;;;;28.08;19.42;;;10.00;99.90;;;;;;5071362;28;20028;-82
2021/04/19 08:40:48;;;;;;;19.48;15.23;;;10.10;99.90;;;;;;5051120;28;20028;-84
2021/04/19 08:43:24;;;;;;;29.15;21.50;;;10.30;99.90;;;;;;5047384;28;20017;-83
2021/04/19 08:45:50;;;;;;;25.50;18.55;;;10.50;99.90;;;;;;5036571;28;20027;-83
2021/04/19 08:48:16;;;;;;;23.90;17.75;;;10.70;99.90;;;;;;5033453;28;20017;-83
2021/04/19 08:50:46;;;;;;;24.77;18.58;;;10.90;99.90;;;;;;5022635;28;20022;-83
2021/04/19 08:53:14;;;;;;;29.08;21.83;;;11.00;99.90;;;;;;5030297;28;20100;-83
2021/04/19 08:55:44;;;;;;;27.52;20.98;;;11.10;99.90;;;;;;5024450;28;20032;-83
2021/04/19 08:58:11;;;;;;;;;;;11.20;99.90;;;;;;5029245;28;20306;-84
2021/04/19 09:00:42;;;;;;;21.35;17.65;;;11.20;99.90;;;;;;5054394;28;19909;-83
2021/04/19 09:03:08;;;;;;;25.65;20.70;;;11.20;99.90;;;;;;5054221;28;20027;-83
2021/04/19 09:05:35;;;;;;;26.33;19.95;;;11.30;99.90;;;;;;5029973;28;20542;-83
2021/04/19 09:08:15;;;;;;;26.33;18.95;;;11.20;99.90;;;;;;5036310;28;20112;-83
2021/04/19 09:11:09;;;;;;;23.20;17.15;;;11.10;99.90;;;;;;5023571;28;20031;-83
2021/04/19 09:13:43;;;;;;;24.77;19.25;;;11.10;99.90;;;;;;5036299;28;20029;-82
2021/04/19 09:16:22;;;;;;;22.77;18.30;;;11.10;99.90;;;;;;5032994;28;20467;-82
2021/04/19 09:18:54;;;;;;;19.05;16.92;;;11.10;99.90;;;;;;5081248;28;20016;-84
2021/04/19 09:21:49;;;;;;;21.33;17.00;;;11.20;99.90;;;;;;5073548;28;20212;-83
2021/04/19 09:24:21;;;;;;;21.10;15.82;;;11.40;99.90;;;;;;5102619;28;20472;-82
2021/04/19 09:26:53;;;;;;;21.33;16.98;;;11.70;99.90;;;;;;5078531;28;20078;-82
2021/04/19 09:29:29;;;;;;;24.83;17.35;;;12.20;99.90;;;;;;5060725;28;20377;-82
2021/04/19 09:32:06;;;;;;;22.40;16.02;;;12.40;99.90;;;;;;5071805;28;20137;-82
2021/04/19 09:34:54;;;;;;;21.02;16.27;;;12.30;99.90;;;;;;5072771;28;20032;-82
2021/04/19 09:37:43;;;;;;;21.52;16.85;;;12.20;99.90;;;;;;5073267;28;20021;-82
2021/04/19 09:40:16;;;;;;;20.55;16.10;;;12.00;99.90;;;;;;5072049;28;20046;-82
2021/04/19 09:42:55;;;;;;;22.95;18.17;;;11.80;99.90;;;;;;5071983;28;20052;-82
2021/04/19 09:45:43;;;;;;;21.92;17.98;;;11.80;99.90;;;;;;5072087;28;20027;-82
2021/04/19 09:48:27;;;;;;;20.97;17.37;;;12.00;99.90;;;;;;5061862;28;20062;-82
2021/04/19 09:51:14;;;;;;;19.70;15.35;;;12.40;99.90;;;;;;5073235;28;20017;-82
2021/04/19 09:54:07;;;;;;;18.65;13.77;;;13.10;99.90;;;;;;5072027;28;20020;-82
2021/04/19 09:56:35;;;;;;;14.55;12.00;;;14.30;99.00;;;;;;5080969;28;20119;-82
2021/04/19 09:59:01;;;;;;;16.38;12.93;;;15.10;96.30;;;;;;5080129;28;20020;-82
2021/04/19 10:01:29;;;;;;;13.38;11.88;;;15.20;95.10;;;;;;5089625;28;20020;-82
2021/04/19 10:03:56;;;;;;;13.15;10.98;;;15.40;94.20;;;;;;5090324;28;20149;-83
2021/04/19 10:06:32;;;;;;;15.13;12.52;;;15.30;94.10;;;;;;5074007;28;20032;-83
2021/04/19 10:09:02;;;;;;;14.50;12.88;;;15.10;94.00;;;;;;5060262;28;20131;-83
2021/04/19 10:11:30;;;;;;;;;;;14.90;93.60;;;;;;5084828;28;20039;-83
2021/04/19 10:13:56;;;;;;;18.55;14.48;;;14.70;93.90;;;;;;5058851;28;20434;-83
2021/04/19 10:16:22;;;;;;;18.65;15.18;;;14.60;94.40;;;;;;5084205;28;20044;-83
2021/04/19 10:18:51;;;;;;;17.33;14.68;;;14.70;94.40;;;;;;5085470;28;20028;-82
2021/04/19 10:21:43;;;;;;;15.43;12.10;;;15.00;94.10;;;;;;5071577;28;20039;-83
2021/04/19 10:24:16;;;;;;;14.80;12.88;;;14.90;94.20;;;;;;5068845;28;20037;-83
2021/04/19 10:26:42;;;;;;;15.02;12.20;;;15.60;93.10;;;;;;5072552;28;20020;-83
2021/04/19 10:29:09;;;;;;;15.20;13.45;;;15.30;92.00;;;;;;5063509;28;20032;-82
2021/04/19 10:31:35;;;;;;;15.35;13.52;;;14.90;91.80;;;;;;5071883;28;20417;-82
2021/04/19 10:34:10;;;;;;;14.07;12.57;;;14.60;92.50;;;;;;5066255;28;20054;-82
2021/04/19 10:36:43;;;;;;;11.93;10.68;;;14.50;93.40;;;;;;5070976;28;20379;-83
2021/04/19 10:39:15;;;;;;;12.75;11.45;;;15.30;93.50;;;;;;5084765;28;20116;-82
2021/04/19 10:41:41;;;;;;;15.75;12.60;;;15.50;91.90;;;;;;5087354;28;20107;-82
2021/04/19 10:44:10;;;;;;;14.75;13.07;;;15.70;91.30;;;;;;5093243;28;20055;-83
2021/04/19 10:46:39;;;;;;;13.98;12.38;;;15.40;90.10;;;;;;5085099;28;20054;-83
2021/04/19 10:49:06;;;;;;;15.80;14.10;;;15.10;90.50;;;;;;5088292;28;20316;-83
2021/04/19 10:51:40;;;;;;;14.30;12.43;;;15.30;91.80;;;;;;5085984;28;20016;-83
2021/04/19 10:54:10;;;;;;;13.35;10.55;;;17.80;90.50;;;;;;5090154;28;20025;-83
2021/04/19 10:56:39;;;;;;;9.63;8.63;;;19.40;84.40;;;;;;5084634;28;20024;-83
2021/04/19 10:59:09;;;;;;;12.48;10.27;;;20.20;79.40;;;;;;5089969;28;20020;-83
2021/04/19 11:01:40;;;;;;;11.07;9.50;;;20.10;68.80;;;;;;5088429;28;20028;-83
2021/04/19 11:04:07;;;;;;;12.57;10.93;;;19.20;68.70;;;;;;5091401;28;20020;-83
2021/04/19 11:06:34;;;;;;;12.57;9.77;;;18.30;70.80;;;;;;5085055;28;20024;-83
2021/04/19 11:09:26;;;;;;;10.60;9.60;;;17.60;73.00;;;;;;5089679;28;20020;-84
2021/04/19 11:11:53;;;;;;;9.45;8.45;;;17.00;74.90;;;;;;5088623;28;20025;-83
2021/04/19 11:14:24;;;;;;;8.32;7.53;;;16.60;77.60;;;;;;5088141;28;20107;-84
2021/04/19 11:16:51;;;;;;;7.78;6.97;;;16.40;80.30;;;;;;5078948;28;20171;-83
2021/04/19 11:19:43;;;;;;;10.70;9.10;;;16.40;81.70;;;;;;5069668;28;20017;-83
2021/04/19 11:22:32;;;;;;;7.82;7.00;;;16.60;82.30;;;;;;5050987;28;20063;-82
2021/04/19 11:25:26;;;;;;;8.60;7.65;;;17.40;82.50;;;;;;5050519;28;20020;-83
2021/04/19 11:28:13;;;;;;;8.10;7.30;;;18.60;77.60;;;;;;5070367;28;20013;-83
2021/04/19 11:30:39;;;;;;;7.10;6.40;;;19.90;73.20;;;;;;5066045;28;20504;-83
2021/04/19 11:33:07;;;;;;;7.88;7.05;;;21.50;70.30;;;;;;5050820;28;20050;-83
2021/04/19 11:35:57;;;;;;;7.22;6.53;;;21.60;64.80;;;;;;5048503;28;20027;-84
2021/04/19 11:38:25;;;;;;;5.38;4.53;;;22.30;62.90;;;;;;5035287;28;20033;-84
2021/04/19 11:40:52;;;;;;;8.52;7.43;;;24.20;60.80;;;;;;5048962;28;20043;-83
2021/04/19 11:43:27;;;;;;;8.70;7.82;;;24.60;53.20;;;;;;5051951;28;20020;-83
2021/04/19 11:46:04;;;;;;;8.32;7.53;;;23.40;51.90;;;;;;5068070;28;20484;-83
2021/04/19 11:48:32;;;;;;;9.88;8.70;;;21.30;54.30;;;;;;5068723;28;20028;-83
2021/04/19 11:51:00;;;;;;;8.52;7.50;;;19.50;59.70;;;;;;5067158;28;20029;-84
2021/04/19 11:53:28;;;;;;;10.02;9.02;;;18.60;63.30;;;;;;5069113;28;20083;-84
2021/04/19 11:55:54;;;;;;;9.18;8.27;;;18.00;64.70;;;;;;5050778;28;20016;-83
2021/04/19 11:58:20;;;;;;;10.70;9.38;;;17.50;67.10;;;;;;5070815;28;20032;-84
2021/04/19 12:00:48;;;;;;;9.18;7.65;;;17.10;68.70;;;;;;5056179;28;20055;-83
2021/04/19 12:03:15;;;;;;;8.10;7.25;;;17.00;70.10;;;;;;5051126;28;20426;-83
2021/04/19 12:05:41;;;;;;;10.85;8.45;;;16.80;71.10;;;;;;5053982;28;20024;-83
2021/04/19 12:08:06;;;;;;;9.85;8.18;;;16.70;72.10;;;;;;5051647;28;20480;-83
2021/04/19 12:10:32;;;;;;;8.18;7.35;;;16.60;72.40;;;;;;5074218;28;20028;-83
2021/04/19 12:12:57;;;;;;;10.52;9.43;;;16.40;72.90;;;;;;5053930;28;20014;-83
2021/04/19 12:15:24;;;;;;;11.82;10.18;;;16.00;74.80;;;;;;5043920;28;20017;-83
2021/04/19 12:17:50;;;;;;;13.85;10.55;;;15.50;77.40;;;;;;5064327;28;20059;-82
2021/04/19 12:20:15;;;;;;;14.90;12.43;;;14.90;81.30;;;;;;5091943;28;20024;-81
2021/04/19 12:22:42;;;;;;;16.70;13.50;;;14.10;91.40;;;;;;5089832;28;20024;-82
2021/04/19 12:25:07;;;;;;;17.17;15.02;;;13.40;96.70;;;;;;5093607;28;20016;-82
2021/04/19 12:27:33;;;;;;;17.88;14.25;;;12.80;99.90;;;;;;5088361;28;20452;-80
2021/04/19 12:29:58;;;;;;;19.38;16.35;;;12.30;99.90;;;;;;5093749;28;20012;-82
2021/04/19 12:32:24;;;;;;;21.25;17.92;;;12.20;99.90;;;;;;5084904;28;20106;-83
2021/04/19 12:34:50;;;;;;;21.58;17.85;;;12.00;99.90;;;;;;5090906;28;20024;-83
2021/04/19 12:37:15;;;;;;;20.27;16.67;;;11.80;99.90;;;;;;5089854;28;20557;-81
2021/04/19 12:39:41;;;;;;;19.17;16.70;;;11.80;99.90;;;;;;5088700;28;20498;-83
2021/04/19 12:42:07;;;;;;;20.83;17.65;;;11.90;99.90;;;;;;5094143;28;20020;-83
2021/04/19 12:44:33;;;;;;;19.50;16.60;;;11.90;99.90;;;;;;5064419;28;20024;-83
2021/04/19 12:46:59;;;;;;;20.77;17.55;;;12.00;99.90;;;;;;5068624;28;20105;-82
2021/04/19 12:49:24;;;;;;;24.77;20.60;;;12.10;99.90;;;;;;5068299;28;20508;-82
2021/04/19 12:51:50;;;;;;;26.20;19.70;;;12.20;99.90;;;;;;5067923;28;20434;-81
2021/04/19 12:54:16;;;;;;;24.90;20.75;;;12.30;99.90;;;;;;5071132;28;20127;-82
2021/04/19 12:56:42;;;;;;;23.30;19.95;;;12.60;99.90;;;;;;5073152;28;20025;-82
2021/04/19 12:59:08;;;;;;;26.00;20.83;;;12.80;99.90;;;;;;5064017;28;20031;-81